Time;durP1;ratioP1;P1;durP2;ratioP2;P2;SDS_P1;SDS_P2;PMS_P1;PMS_P2;Temp;Humidity;BMP_temperature;BMP_pressure;BME280_temperature;BME280_humidity;BME280_pressure;Samples;Min_cycle;Max_cycle;Signal;HPM_P1;HPM_P2
2023/11/12 00:00:15;;;;;;;17.70;10.15;;;;;;;3.01;100.00;100328.84;4982782;28;20500;-77
2023/11/12 00:02:40;;;;;;;20.27;10.52;;;;;;;3.00;100.00;100329.78;4977685;28;20041;-77
2023/11/12 00:05:08;;;;;;;19.15;10.27;;;;;;;2.98;100.00;100326.53;4982122;28;20041;-77
2023/11/12 00:07:33;;;;;;;18.50;10.02;;;;;;;2.96;100.00;100324.09;4977942;28;20038;-77
2023/11/12 00:09:58;;;;;;;17.05;10.50;;;;;;;2.95;100.00;100325.00;4972765;28;20066;-77
2023/11/12 00:12:24;;;;;;;22.00;10.82;;;;;;;2.93;100.00;100314.88;4979898;28;20057;-77
2023/11/12 00:14:50;;;;;;;16.17;10.27;;;;;;;2.90;100.00;100327.94;4983781;28;20041;-78
2023/11/12 00:17:16;;;;;;;19.60;10.05;;;;;;;2.88;100.00;100316.16;4997981;28;20468;-77
2023/11/12 00:19:41;;;;;;;19.52;10.35;;;;;;;2.87;100.00;100320.47;4984475;28;20046;-77
2023/11/12 00:22:07;;;;;;;19.73;10.23;;;;;;;2.85;100.00;100314.66;4985205;28;20037;-77
2023/11/12 00:24:33;;;;;;;18.23;9.70;;;;;;;2.84;100.00;100309.66;4970505;28;20041;-77
2023/11/12 00:26:58;;;;;;;19.58;9.75;;;;;;;2.82;100.00;100311.50;4986660;28;20034;-78
2023/11/12 00:29:24;;;;;;;20.27;10.40;;;;;;;2.80;100.00;100309.06;4976273;28;20066;-77
2023/11/12 00:31:49;;;;;;;14.88;9.77;;;;;;;2.79;100.00;100310.00;4985165;28;20038;-77
2023/11/12 00:34:15;;;;;;;19.65;10.60;;;;;;;2.77;100.00;100306.75;4972738;28;20440;-77
2023/11/12 00:36:42;;;;;;;22.38;12.65;;;;;;;2.76;100.00;100312.78;4968623;28;20037;-77
2023/11/12 00:39:09;;;;;;;20.83;10.80;;;;;;;2.75;100.00;100297.53;4975663;28;20038;-76
2023/11/12 00:41:39;;;;;;;18.90;10.82;;;;;;;2.74;100.00;100304.41;4970570;28;20050;-77
2023/11/12 00:44:05;;;;;;;19.35;10.40;;;;;;;2.73;100.00;100295.09;4981966;28;20023;-77
2023/11/12 00:46:30;;;;;;;18.98;10.48;;;;;;;2.71;100.00;100296.97;4980835;28;20046;-77
2023/11/12 00:48:57;;;;;;;17.70;10.07;;;;;;;2.69;100.00;100296.25;4963653;28;20034;-77
2023/11/12 00:51:24;;;;;;;20.10;10.50;;;;;;;2.66;100.00;100304.19;4988056;28;20073;-78
2023/11/12 00:53:50;;;;;;;14.95;9.50;;;;;;;2.64;100.00;100296.63;4983390;28;20033;-77
2023/11/12 00:56:15;;;;;;;17.17;10.35;;;;;;;2.65;100.00;100292.31;4987613;28;20033;-77
2023/11/12 00:58:42;;;;;;;18.60;10.00;;;;;;;2.66;100.00;100296.53;4974637;28;20060;-77
2023/11/12 01:01:08;;;;;;;14.00;9.02;;;;;;;2.60;100.00;100294.41;4975076;28;20033;-77
2023/11/12 01:03:34;;;;;;;16.50;9.48;;;;;;;2.57;100.00;100300.59;4988436;28;20068;-77
2023/11/12 01:06:02;;;;;;;19.95;10.30;;;;;;;2.51;100.00;100299.31;4971210;28;20034;-77
2023/11/12 01:08:30;;;;;;;18.08;10.23;;;;;;;2.49;100.00;100292.69;4999407;28;20064;-77
2023/11/12 01:10:56;;;;;;;17.63;9.68;;;;;;;2.48;100.00;100296.97;4976651;28;20095;-77
2023/11/12 01:13:22;;;;;;;18.98;10.90;;;;;;;2.47;100.00;100292.78;4986068;28;20521;-77
2023/11/12 01:15:47;;;;;;;21.13;11.70;;;;;;;2.48;100.00;100294.41;4988104;28;20637;-77
2023/11/12 01:18:13;;;;;;;17.38;9.77;;;;;;;2.47;100.00;100297.91;4992447;28;21357;-77
2023/11/12 01:20:40;;;;;;;16.83;10.32;;;;;;;2.46;100.00;100291.16;4973363;28;20464;-77
2023/11/12 01:23:05;;;;;;;18.13;9.60;;;;;;;2.46;100.00;100290.34;4991189;28;20029;-77
2023/11/12 01:25:33;;;;;;;16.83;10.50;;;;;;;2.45;100.00;100294.66;5001647;28;20120;-77
2023/11/12 01:27:59;;;;;;;18.38;11.07;;;;;;;2.44;100.00;100295.56;4982775;28;20057;-77
2023/11/12 01:30:25;;;;;;;21.50;9.98;;;;;;;2.42;100.00;100297.44;4991016;28;20046;-77
2023/11/12 01:32:52;;;;;;;18.20;10.82;;;;;;;2.43;100.00;100298.25;4967698;28;20038;-77
2023/11/12 01:35:19;;;;;;;16.98;9.93;;;;;;;2.37;100.00;100298.72;4987168;28;20082;-77
2023/11/12 01:37:47;;;;;;;20.33;11.05;;;;;;;2.34;100.00;100299.75;4993842;28;20710;-77
2023/11/12 01:40:15;;;;;;;16.90;10.48;;;;;;;2.31;100.00;100299.97;4979869;28;20133;-76
2023/11/12 01:42:42;;;;;;;18.30;9.95;;;;;;;2.30;100.00;100295.81;4995482;28;20030;-77
2023/11/12 01:45:09;;;;;;;19.08;10.90;;;;;;;2.30;100.00;100300.94;4984978;28;20054;-77
2023/11/12 01:47:36;;;;;;;19.23;11.27;;;;;;;2.28;100.00;100301.03;4999593;28;20104;-77
2023/11/12 01:50:03;;;;;;;18.00;10.55;;;;;;;2.27;100.00;100290.91;4983438;28;20031;-78
2023/11/12 01:52:30;;;;;;;20.25;10.00;;;;;;;2.24;100.00;100289.41;4976855;28;20126;-77
2023/11/12 01:54:56;;;;;;;18.00;9.98;;;;;;;2.23;100.00;100292.06;4991690;28;20054;-77
2023/11/12 01:57:23;;;;;;;21.20;10.80;;;;;;;2.22;100.00;100287.88;4972935;28;20170;-77
2023/11/12 01:59:49;;;;;;;16.52;10.20;;;;;;;2.20;100.00;100282.06;4990041;28;20030;-78
2023/11/12 02:02:15;;;;;;;25.73;11.10;;;;;;;2.20;100.00;100290.53;4990353;28;20429;-78
2023/11/12 02:04:41;;;;;;;17.42;10.38;;;;;;;2.20;100.00;100292.28;4988243;28;20049;-78
2023/11/12 02:07:07;;;;;;;22.83;10.18;;;;;;;2.19;100.00;100293.25;4983042;28;20591;-78
2023/11/12 02:09:32;;;;;;;21.38;10.77;;;;;;;2.16;100.00;100294.25;4987525;28;20038;-78
2023/11/12 02:11:58;;;;;;;20.25;10.85;;;;;;;2.16;100.00;100291.69;5008493;28;20018;-77
2023/11/12 02:14:25;;;;;;;20.25;11.00;;;;;;;2.15;100.00;100290.09;4977624;28;20033;-77
2023/11/12 02:16:51;;;;;;;19.25;11.20;;;;;;;2.12;100.00;100298.78;4999810;28;20057;-78
2023/11/12 02:19:29;;;;;;;20.13;11.27;;;;;;;2.10;100.00;100290.41;5009073;28;20038;-78
2023/11/12 02:21:57;;;;;;;17.02;9.70;;;;;;;2.09;100.00;100293.91;5016650;28;20124;-77
2023/11/12 02:24:23;;;;;;;19.17;10.10;;;;;;;2.05;100.00;100294.25;5018498;28;20033;-78
2023/11/12 02:26:49;;;;;;;23.65;10.88;;;;;;;2.02;100.00;100292.72;4998065;28;20028;-78
2023/11/12 02:29:16;;;;;;;18.20;10.27;;;;;;;2.02;100.00;100297.03;5017581;28;20104;-77
2023/11/12 02:31:42;;;;;;;18.40;9.70;;;;;;;2.01;100.00;100303.06;5013154;28;20132;-78
2023/11/12 02:34:07;;;;;;;22.02;11.80;;;;;;;1.98;100.00;100295.63;5011087;28;20032;-78
2023/11/12 02:36:35;;;;;;;18.40;9.80;;;;;;;1.92;100.00;100291.75;5002610;28;20038;-77
2023/11/12 02:39:07;;;;;;;13.88;8.95;;;;;;;1.89;100.00;100304.78;5023766;28;20037;-78
2023/11/12 02:41:32;;;;;;;16.98;9.85;;;;;;;1.85;100.00;100293.97;5006481;28;20041;-78
2023/11/12 02:43:58;;;;;;;17.15;9.63;;;;;;;1.82;100.00;100291.63;5012243;28;20028;-78
2023/11/12 02:46:23;;;;;;;17.55;10.05;;;;;;;1.78;100.00;100297.88;5009281;28;20045;-77
2023/11/12 02:49:07;;;;;;;16.08;9.63;;;;;;;1.77;100.00;100295.44;5006066;28;20388;-77
2023/11/12 02:51:33;;;;;;;16.00;9.82;;;;;;;1.74;100.00;100291.38;5019546;28;20033;-78
2023/11/12 02:53:58;;;;;;;17.48;10.13;;;;;;;1.72;100.00;100298.34;5030286;28;20052;-78
2023/11/12 02:56:24;;;;;;;17.85;10.77;;;;;;;1.71;100.00;100294.13;5009343;28;20058;-78
2023/11/12 02:58:49;;;;;;;16.45;9.88;;;;;;;1.69;100.00;100285.78;5000401;28;20032;-78
2023/11/12 03:01:15;;;;;;;19.00;10.57;;;;;;;1.68;100.00;100290.06;5005231;28;20087;-78
2023/11/12 03:03:41;;;;;;;22.08;10.52;;;;;;;1.67;100.00;100285.88;4999694;28;20034;-78
2023/11/12 03:06:07;;;;;;;18.73;11.02;;;;;;;1.67;100.00;100285.88;5010896;28;20493;-78
2023/11/12 03:08:32;;;;;;;16.63;9.48;;;;;;;1.67;100.00;100291.00;4993611;28;20073;-78
2023/11/12 03:10:58;;;;;;;21.27;10.43;;;;;;;1.68;100.00;100281.59;4980686;28;20039;-78
2023/11/12 03:13:25;;;;;;;23.20;10.60;;;;;;;1.70;100.00;100284.84;5000478;28;20038;-78
2023/11/12 03:15:51;;;;;;;17.38;9.98;;;;;;;1.67;100.00;100279.97;4976803;28;20618;-78
2023/11/12 03:18:17;;;;;;;17.17;9.60;;;;;;;1.66;100.00;100291.94;4974722;28;20030;-78
2023/11/12 03:20:42;;;;;;;17.15;9.70;;;;;;;1.67;100.00;100296.09;4985076;28;20648;-79
2023/11/12 03:23:08;;;;;;;17.95;9.50;;;;;;;1.67;100.00;100293.53;4997530;28;20530;-78
2023/11/12 03:25:33;;;;;;;20.35;9.93;;;;;;;1.67;100.00;100283.31;5001627;28;20047;-80
2023/11/12 03:27:59;;;;;;;21.23;10.80;;;;;;;1.68;100.00;100277.28;4986624;28;20045;-78
2023/11/12 03:30:26;;;;;;;19.23;10.00;;;;;;;1.71;100.00;100282.19;4980199;28;20076;-78
2023/11/12 03:32:51;;;;;;;23.83;10.68;;;;;;;1.73;100.00;100282.06;5011742;28;20165;-78
2023/11/12 03:35:17;;;;;;;22.45;10.40;;;;;;;1.74;100.00;100276.84;4981389;28;20038;-78
2023/11/12 03:37:42;;;;;;;21.00;10.75;;;;;;;1.75;100.00;100281.03;4975282;28;20038;-79
2023/11/12 03:40:09;;;;;;;20.90;12.10;;;;;;;1.90;100.00;100275.72;4986388;28;20030;-79
2023/11/12 03:42:34;;;;;;;28.25;12.85;;;;;;;1.95;100.00;100277.00;4980876;28;20054;-78
2023/11/12 03:45:00;;;;;;;25.10;12.15;;;;;;;1.93;100.00;100275.50;4984671;28;20555;-81
2023/11/12 03:47:26;;;;;;;23.73;11.98;;;;;;;1.91;100.00;100277.38;4986241;28;20026;-78
2023/11/12 03:49:52;;;;;;;23.75;12.38;;;;;;;1.90;100.00;100275.72;4979021;28;20050;-78
2023/11/12 03:52:18;;;;;;;23.95;11.60;;;;;;;1.88;100.00;100270.72;4981097;28;20036;-78
2023/11/12 03:54:45;;;;;;;19.98;11.25;;;;;;;1.87;100.00;100266.53;5004707;28;20038;-78
2023/11/12 03:57:10;;;;;;;21.73;11.80;;;;;;;1.89;100.00;100272.34;4983898;28;20037;-78
2023/11/12 03:59:36;;;;;;;25.50;11.90;;;;;;;1.97;100.00;100271.78;4985279;28;20036;-78
2023/11/12 04:02:03;;;;;;;26.48;12.40;;;;;;;1.94;100.00;100270.28;4989395;28;20081;-79
2023/11/12 04:04:28;;;;;;;26.98;12.38;;;;;;;1.96;100.00;100267.63;4986523;28;20042;-78
2023/11/12 04:06:54;;;;;;;23.77;11.80;;;;;;;1.94;100.00;100267.72;4976870;28;20027;-78
2023/11/12 04:09:19;;;;;;;22.95;11.02;;;;;;;1.95;100.00;100266.78;4992094;28;20038;-78
2023/11/12 04:11:45;;;;;;;23.13;11.20;;;;;;;1.95;100.00;100265.97;4983069;28;20045;-79
2023/11/12 04:14:10;;;;;;;21.15;11.57;;;;;;;1.93;100.00;100265.28;4983896;28;20084;-78
2023/11/12 04:16:36;;;;;;;21.70;11.88;;;;;;;1.95;100.00;100260.84;4993118;28;20033;-78
2023/11/12 04:19:03;;;;;;;22.33;10.93;;;;;;;1.95;100.00;100258.31;4962989;28;20045;-77
2023/11/12 04:21:32;;;;;;;21.30;12.27;;;;;;;1.94;100.00;100254.09;5001563;28;20027;-79
2023/11/12 04:23:58;;;;;;;20.23;11.13;;;;;;;1.93;100.00;100263.53;5010666;28;20026;-78
2023/11/12 04:26:24;;;;;;;19.80;11.02;;;;;;;1.92;100.00;100254.25;4988124;28;20049;-79
2023/11/12 04:28:50;;;;;;;22.30;10.48;;;;;;;1.90;100.00;100250.97;5005088;28;20042;-78
2023/11/12 04:31:15;;;;;;;19.67;11.43;;;;;;;1.91;100.00;100259.47;4990114;28;20029;-78
2023/11/12 04:33:42;;;;;;;22.27;11.82;;;;;;;1.90;100.00;100263.78;4986039;28;20126;-78
2023/11/12 04:36:07;;;;;;;23.20;10.88;;;;;;;1.91;100.00;100254.34;5004718;28;20045;-77
2023/11/12 04:38:33;;;;;;;23.42;11.57;;;;;;;1.92;100.00;100259.34;4993287;28;20513;-78
2023/11/12 04:40:59;;;;;;;21.88;10.90;;;;;;;1.92;100.00;100259.34;4973996;28;20421;-77
2023/11/12 04:43:24;;;;;;;21.08;11.40;;;;;;;1.93;100.00;100267.84;4981549;28;20038;-78
2023/11/12 04:45:49;;;;;;;23.83;11.30;;;;;;;1.90;100.00;100268.88;4974439;28;20620;-78
2023/11/12 04:48:15;;;;;;;26.33;10.77;;;;;;;1.98;100.00;100267.47;4981151;28;20030;-78
2023/11/12 04:50:41;;;;;;;24.20;12.02;;;;;;;1.93;100.00;100271.19;4982934;28;21108;-79
2023/11/12 04:53:07;;;;;;;21.77;10.43;;;;;;;1.89;100.00;100274.09;5005480;28;20500;-78
2023/11/12 04:55:34;;;;;;;19.88;10.60;;;;;;;1.88;100.00;100262.22;4979521;28;20034;-78
2023/11/12 04:58:01;;;;;;;19.05;9.88;;;;;;;1.88;100.00;100264.78;4981161;28;20026;-78
2023/11/12 05:00:28;;;;;;;20.10;10.52;;;;;;;1.88;100.00;100264.78;4994593;28;20042;-78
2023/11/12 05:02:53;;;;;;;22.40;11.18;;;;;;;1.87;100.00;100273.41;4985088;28;20125;-80
2023/11/12 05:05:19;;;;;;;21.95;11.23;;;;;;;1.87;100.00;100273.41;4968884;28;20031;-78
2023/11/12 05:07:44;;;;;;;17.83;10.20;;;;;;;1.85;100.00;100272.72;4983161;28;20038;-79
2023/11/12 05:10:11;;;;;;;23.30;11.18;;;;;;;1.85;100.00;100272.72;4986469;28;20030;-79
2023/11/12 05:12:38;;;;;;;21.25;10.88;;;;;;;1.86;100.00;100271.75;4980761;28;20033;-78
2023/11/12 05:15:14;;;;;;;24.92;12.65;;;;;;;1.90;100.00;100273.16;4973075;28;20125;-80
2023/11/12 05:17:39;;;;;;;24.67;12.52;;;;;;;1.88;100.00;100277.56;4965562;28;20030;-78
2023/11/12 05:20:05;;;;;;;20.45;11.35;;;;;;;1.87;100.00;100275.97;4984852;28;20048;-79
2023/11/12 05:22:31;;;;;;;23.02;11.57;;;;;;;1.85;100.00;100275.25;4968420;28;20117;-78
2023/11/12 05:24:57;;;;;;;18.63;11.13;;;;;;;1.83;100.00;100275.38;5000838;28;20049;-79
2023/11/12 05:27:23;;;;;;;16.35;10.07;;;;;;;1.82;100.00;100272.91;4986695;28;20042;-78
2023/11/12 05:29:48;;;;;;;24.67;11.27;;;;;;;1.80;100.00;100275.59;4983213;28;20130;-80
2023/11/12 05:32:14;;;;;;;20.83;11.15;;;;;;;1.78;100.00;100279.19;4982662;28;20033;-78
2023/11/12 05:34:39;;;;;;;19.08;10.55;;;;;;;1.75;100.00;100283.59;4985855;28;20093;-79
2023/11/12 05:37:05;;;;;;;20.88;10.73;;;;;;;1.72;100.00;100283.81;4978457;28;20037;-79
2023/11/12 05:39:31;;;;;;;23.13;10.52;;;;;;;1.72;100.00;100283.00;4981836;28;20026;-79
2023/11/12 05:41:57;;;;;;;18.92;10.13;;;;;;;1.71;100.00;100282.19;5006225;28;20737;-79
2023/11/12 05:44:22;;;;;;;22.55;11.68;;;;;;;1.70;100.00;100284.84;5001294;28;20038;-79
2023/11/12 05:46:48;;;;;;;22.92;11.52;;;;;;;1.66;100.00;100297.03;5001081;28;20237;-79
2023/11/12 05:49:13;;;;;;;24.33;10.50;;;;;;;1.62;100.00;100287.97;4976221;28;20041;-79
2023/11/12 05:51:39;;;;;;;20.63;10.20;;;;;;;1.60;100.00;100283.88;4986887;28;20045;-79
2023/11/12 05:54:06;;;;;;;22.52;10.82;;;;;;;1.58;100.00;100289.09;4976606;28;20344;-79
2023/11/12 05:56:32;;;;;;;24.55;11.10;;;;;;;1.58;100.00;100286.53;4984464;28;20527;-79
2023/11/12 05:58:58;;;;;;;19.33;11.10;;;;;;;1.61;100.00;100283.78;5001479;28;20026;-78
2023/11/12 06:01:24;;;;;;;20.30;9.90;;;;;;;1.53;100.00;100288.63;5004170;28;20085;-79
2023/11/12 06:03:49;;;;;;;17.33;9.20;;;;;;;1.47;100.00;100287.31;4987188;28;20425;-79
2023/11/12 06:06:15;;;;;;;20.98;9.95;;;;;;;1.46;100.00;100287.44;4994076;28;20049;-79
2023/11/12 06:08:41;;;;;;;20.38;10.75;;;;;;;1.48;100.00;100296.59;4967320;28;20390;-78
2023/11/12 06:11:06;;;;;;;19.27;10.35;;;;;;;1.47;100.00;100294.16;4970226;28;20421;-78
2023/11/12 06:13:32;;;;;;;15.57;9.52;;;;;;;1.45;100.00;100296.84;4983513;28;20030;-78
2023/11/12 06:15:58;;;;;;;20.60;12.25;;;;;;;1.48;100.00;100303.47;4977813;28;20042;-78
2023/11/12 06:18:23;;;;;;;25.75;11.15;;;;;;;1.43;100.00;100305.53;4984304;28;20057;-78
2023/11/12 06:20:49;;;;;;;24.83;11.48;;;;;;;1.42;100.00;100311.56;4984706;28;20504;-78
2023/11/12 06:23:15;;;;;;;18.40;10.82;;;;;;;1.38;100.00;100312.72;5008947;28;20049;-79
2023/11/12 06:25:40;;;;;;;29.35;12.20;;;;;;;1.36;100.00;100312.81;4984959;28;20045;-78
2023/11/12 06:28:05;;;;;;;20.27;11.70;;;;;;;1.35;100.00;100312.00;4985088;28;20042;-77
2023/11/12 06:30:31;;;;;;;23.67;10.93;;;;;;;1.35;100.00;100308.63;4998298;28;20031;-79
2023/11/12 06:32:58;;;;;;;25.90;11.48;;;;;;;1.39;100.00;100307.47;4983215;28;20385;-77
2023/11/12 06:35:24;;;;;;;23.83;10.18;;;;;;;1.34;100.00;100315.47;4994353;28;20042;-77
2023/11/12 06:37:49;;;;;;;21.83;10.63;;;;;;;1.32;100.00;100313.97;4989269;28;20045;-78
2023/11/12 06:40:15;;;;;;;20.65;11.13;;;;;;;1.32;100.00;100313.97;4970219;28;20428;-78
2023/11/12 06:42:42;;;;;;;18.42;10.23;;;;;;;1.26;100.00;100312.66;4982582;28;20026;-78
2023/11/12 06:45:08;;;;;;;15.88;9.02;;;;;;;1.24;100.00;100313.69;4983443;28;21895;-77
2023/11/12 06:47:35;;;;;;;19.05;10.45;;;;;;;1.23;100.00;100319.72;4990781;28;20164;-79
2023/11/12 06:50:01;;;;;;;23.33;9.70;;;;;;;1.25;100.00;100323.78;4985213;28;20042;-78
2023/11/12 06:52:27;;;;;;;18.63;10.15;;;;;;;1.24;100.00;100327.25;4998913;28;20030;-78
2023/11/12 06:54:52;;;;;;;19.60;10.32;;;;;;;1.23;100.00;100330.75;4992680;28;20095;-79
2023/11/12 06:57:18;;;;;;;16.30;9.48;;;;;;;1.21;100.00;100331.78;4989359;28;20038;-78
2023/11/12 06:59:43;;;;;;;20.20;10.07;;;;;;;1.19;100.00;100331.91;5003811;28;20057;-79
2023/11/12 07:02:09;;;;;;;18.27;9.98;;;;;;;1.23;100.00;100330.75;4985058;28;20025;-79
2023/11/12 07:04:34;;;;;;;18.67;10.05;;;;;;;1.20;100.00;100336.06;4985785;28;20026;-79
2023/11/12 07:07:00;;;;;;;18.10;9.63;;;;;;;1.16;100.00;100339.75;4973574;28;20127;-77
2023/11/12 07:09:25;;;;;;;21.90;11.73;;;;;;;1.14;100.00;100339.84;5001560;28;20037;-79
2023/11/12 07:11:51;;;;;;;26.17;13.43;;;;;;;1.13;100.00;100338.25;4985910;28;20026;-78
2023/11/12 07:14:16;;;;;;;26.48;11.25;;;;;;;1.13;100.00;100339.97;4987766;28;20053;-79
2023/11/12 07:16:43;;;;;;;19.40;11.35;;;;;;;1.10;100.00;100343.53;5005506;28;20162;-79
2023/11/12 07:19:09;;;;;;;19.73;10.90;;;;;;;1.10;100.00;100346.09;4996607;28;20026;-76
2023/11/12 07:21:35;;;;;;;24.10;14.07;;;;;;;1.13;100.00;100347.63;4992708;28;20045;-79
2023/11/12 07:24:01;;;;;;;20.33;11.25;;;;;;;1.13;100.00;100351.00;4976287;28;20028;-78
2023/11/12 07:26:27;;;;;;;19.80;10.70;;;;;;;1.13;100.00;100347.63;4991569;28;20042;-78
2023/11/12 07:28:54;;;;;;;17.73;10.40;;;;;;;1.13;100.00;100360.38;5002970;28;20054;-78
2023/11/12 07:31:23;;;;;;;20.77;10.20;;;;;;;1.15;100.00;100356.03;4987574;28;20030;-78
2023/11/12 07:33:48;;;;;;;17.50;10.35;;;;;;;1.19;100.00;100354.03;5010561;28;20026;-77
2023/11/12 07:36:14;;;;;;;20.67;10.32;;;;;;;1.27;100.00;100354.34;5003065;28;20045;-78
2023/11/12 07:38:40;;;;;;;19.10;9.90;;;;;;;1.26;100.00;100358.66;5003046;28;20042;-78
2023/11/12 07:41:09;;;;;;;24.27;11.70;;;;;;;1.32;100.00;100357.41;4981978;28;20093;-78
2023/11/12 07:43:35;;;;;;;22.33;10.65;;;;;;;1.39;100.00;100358.59;4971712;28;20021;-77
2023/11/12 07:46:02;;;;;;;21.15;10.68;;;;;;;1.48;100.00;100362.25;5001012;28;20038;-78
2023/11/12 07:48:29;;;;;;;16.77;10.35;;;;;;;1.50;100.00;100361.19;4983276;28;20130;-78
2023/11/12 07:50:56;;;;;;;22.70;10.85;;;;;;;1.63;100.00;100370.56;4975515;28;20033;-79
2023/11/12 07:53:22;;;;;;;24.83;10.60;;;;;;;1.72;100.00;100368.19;5010456;28;20179;-77
2023/11/12 07:55:47;;;;;;;18.48;10.68;;;;;;;1.69;100.00;100370.13;5003526;28;20545;-77
2023/11/12 07:58:12;;;;;;;24.50;11.70;;;;;;;1.78;100.00;100368.66;4986361;28;20033;-78
2023/11/12 08:00:38;;;;;;;27.08;11.60;;;;;;;1.81;100.00;100368.44;5007805;28;20084;-78
2023/11/12 08:03:04;;;;;;;27.83;12.25;;;;;;;1.87;100.00;100373.13;4988501;28;20025;-79
2023/11/12 08:05:29;;;;;;;24.58;12.77;;;;;;;2.02;100.00;100376.31;4991575;28;20042;-78
2023/11/12 08:07:55;;;;;;;31.02;15.00;;;;;;;2.01;100.00;100378.03;5004824;28;20030;-79
2023/11/12 08:10:21;;;;;;;34.45;15.10;;;;;;;2.08;100.00;100376.69;5004051;28;20097;-78
2023/11/12 08:12:47;;;;;;;27.98;12.88;;;;;;;2.14;100.00;100377.97;4996282;28;20036;-79
2023/11/12 08:15:13;;;;;;;26.73;13.40;;;;;;;2.20;100.00;100387.75;5002313;28;20133;-78
2023/11/12 08:17:42;;;;;;;30.80;14.20;;;;;;;2.26;100.00;100389.88;4992584;28;20029;-78
2023/11/12 08:20:09;;;;;;;27.20;13.50;;;;;;;2.37;100.00;100386.53;4972122;28;23529;-79
2023/11/12 08:22:34;;;;;;;25.13;12.52;;;;;;;2.49;100.00;100384.81;4984367;28;20026;-79
2023/11/12 08:25:00;;;;;;;26.58;13.45;;;;;;;2.72;100.00;100395.91;4986965;28;20510;-78
2023/11/12 08:27:25;;;;;;;24.10;12.43;;;;;;;2.95;100.00;100389.03;4993033;28;20485;-78
2023/11/12 08:29:51;;;;;;;21.02;11.68;;;;;;;3.27;100.00;100394.25;5003643;28;20075;-78
2023/11/12 08:32:17;;;;;;;23.83;12.70;;;;;;;3.54;100.00;100393.03;4983342;28;20042;-79
2023/11/12 08:34:43;;;;;;;20.55;10.57;;;;;;;3.89;100.00;100394.56;4984427;28;20054;-78
2023/11/12 08:37:09;;;;;;;20.00;9.85;;;;;;;4.20;100.00;100398.06;4981996;28;20516;-79
2023/11/12 08:39:34;;;;;;;24.77;11.50;;;;;;;4.49;100.00;100394.88;5002715;28;20065;-77
2023/11/12 08:42:00;;;;;;;17.95;11.15;;;;;;;4.45;100.00;100399.44;4969667;28;20026;-78
2023/11/12 08:44:25;;;;;;;16.42;9.40;;;;;;;4.62;100.00;100397.25;4985196;28;20038;-76
2023/11/12 08:46:51;;;;;;;19.88;9.95;;;;;;;4.66;100.00;100403.75;4998661;28;20037;-77
2023/11/12 08:49:16;;;;;;;13.77;8.50;;;;;;;4.71;100.00;100396.50;4964720;28;20032;-78
2023/11/12 08:51:42;;;;;;;17.20;8.77;;;;;;;4.74;100.00;100401.34;4986992;28;20438;-78
2023/11/12 08:54:09;;;;;;;19.40;9.27;;;;;;;4.63;100.00;100404.00;4984207;28;20029;-77
2023/11/12 08:56:35;;;;;;;14.98;8.07;;;;;;;4.55;100.00;100399.50;4977345;28;20046;-77
2023/11/12 08:59:03;;;;;;;21.50;9.32;;;;;;;4.40;100.00;100409.25;4978720;28;20637;-77
2023/11/12 09:01:28;;;;;;;18.58;9.57;;;;;;;4.24;100.00;100408.91;5000804;28;20636;-77
2023/11/12 09:03:54;;;;;;;14.93;8.25;;;;;;;4.19;100.00;100400.75;4980160;28;20030;-77
2023/11/12 09:06:19;;;;;;;18.20;8.80;;;;;;;4.27;100.00;100400.94;4980026;28;20038;-77
2023/11/12 09:08:45;;;;;;;18.48;9.10;;;;;;;4.26;100.00;100399.31;4965635;28;20021;-77
2023/11/12 09:11:13;;;;;;;17.90;10.55;;;;;;;4.27;100.00;100391.47;4983480;28;20065;-77
2023/11/12 09:13:39;;;;;;;15.00;9.75;;;;;;;4.24;100.00;100393.50;4977810;28;20031;-78
2023/11/12 09:16:06;;;;;;;14.25;8.80;;;;;;;4.39;100.00;100399.13;4990816;28;20592;-78
2023/11/12 09:18:33;;;;;;;15.93;8.00;;;;;;;4.37;100.00;100391.56;4995073;28;20404;-79
2023/11/12 09:20:59;;;;;;;16.98;8.60;;;;;;;4.34;100.00;100396.94;4986051;28;20097;-78
2023/11/12 09:23:25;;;;;;;14.98;8.20;;;;;;;4.25;100.00;100407.94;4987221;28;20030;-78
2023/11/12 09:25:50;;;;;;;15.85;8.32;;;;;;;4.23;100.00;100399.56;4993961;28;20089;-77
2023/11/12 09:28:16;;;;;;;14.82;7.85;;;;;;;4.30;100.00;100403.25;5003436;28;20432;-77
2023/11/12 09:30:42;;;;;;;17.30;8.15;;;;;;;4.26;100.00;100404.47;5000930;28;20034;-78
2023/11/12 09:33:09;;;;;;;19.10;8.55;;;;;;;4.18;100.00;100391.41;4994764;28;20034;-82
2023/11/12 09:35:35;;;;;;;19.02;8.13;;;;;;;4.23;100.00;100394.44;4971588;28;20041;-78
2023/11/12 09:38:00;;;;;;;19.05;9.20;;;;;;;4.19;100.00;100401.56;4981361;28;20038;-78
2023/11/12 09:40:31;;;;;;;14.63;8.48;;;;;;;4.42;100.00;100402.25;4983061;28;20036;-78
2023/11/12 09:42:57;;;;;;;15.05;8.40;;;;;;;4.28;100.00;100402.59;4996963;28;20089;-77
2023/11/12 09:45:24;;;;;;;14.90;8.40;;;;;;;4.28;100.00;100400.00;4986790;28;20042;-77
2023/11/12 09:48:03;;;;;;;16.23;8.48;;;;;;;4.40;100.00;100395.63;4999106;28;20505;-80
2023/11/12 09:50:30;;;;;;;14.30;8.20;;;;;;;4.52;100.00;100401.50;5001415;28;20080;-77
2023/11/12 09:52:56;;;;;;;13.85;8.50;;;;;;;4.52;100.00;100399.78;4998487;28;20563;-76
2023/11/12 09:55:22;;;;;;;17.58;9.38;;;;;;;4.51;100.00;100400.69;5005461;28;20495;-79
2023/11/12 09:57:51;;;;;;;14.65;8.95;;;;;;;4.55;100.00;100398.69;4970300;28;20033;-78
2023/11/12 10:00:17;;;;;;;12.98;8.43;;;;;;;4.55;100.00;100398.69;4982030;28;20097;-78
2023/11/12 10:02:46;;;;;;;14.93;7.97;;;;;;;4.65;100.00;100395.25;4990859;28;20045;-79
2023/11/12 10:05:13;;;;;;;18.00;8.40;;;;;;;4.68;100.00;100394.97;5002008;28;20037;-78
2023/11/12 10:07:40;;;;;;;14.18;8.73;;;;;;;4.72;100.00;100397.28;4967895;28;20038;-78
2023/11/12 10:10:26;;;;;;;16.27;9.00;;;;;;;4.90;100.00;100388.06;4980633;28;20030;-78
2023/11/12 10:12:53;;;;;;;17.65;9.25;;;;;;;4.88;100.00;100390.75;4975407;28;20053;-78
2023/11/12 10:15:26;;;;;;;17.65;9.10;;;;;;;4.99;100.00;100386.44;4984274;28;21207;-79
2023/11/12 10:17:52;;;;;;;17.90;8.50;;;;;;;5.02;100.00;100383.63;4992037;28;20042;-77
2023/11/12 10:20:20;;;;;;;14.43;7.10;;;;;;;4.92;100.00;100382.78;4996248;28;20034;-78
2023/11/12 10:22:46;;;;;;;17.67;8.57;;;;;;;4.98;100.00;100382.25;4989089;28;20038;-77
2023/11/12 10:25:12;;;;;;;16.33;8.18;;;;;;;5.02;100.00;100389.56;5004454;28;20042;-80
2023/11/12 10:27:53;;;;;;;17.48;8.32;;;;;;;5.20;100.00;100384.63;4997241;28;20029;-79
2023/11/12 10:30:20;;;;;;;16.05;7.15;;;;;;;5.22;100.00;100389.66;4980162;28;20034;-79
2023/11/12 10:32:46;;;;;;;15.25;7.55;;;;;;;5.46;100.00;100376.41;4990948;28;20022;-77
2023/11/12 10:35:30;;;;;;;13.90;6.43;;;;;;;5.49;100.00;100378.75;4971890;28;20077;-79
2023/11/12 10:37:58;;;;;;;11.32;6.40;;;;;;;5.53;100.00;100387.81;5010844;28;20688;-77
2023/11/12 10:40:24;;;;;;;16.25;9.05;;;;;;;5.62;100.00;100387.00;5009304;28;20049;-77
2023/11/12 10:42:58;;;;;;;13.50;7.40;;;;;;;5.69;100.00;100379.59;4995108;28;20033;-79
2023/11/12 10:45:25;;;;;;;13.05;7.63;;;;;;;5.59;100.00;100381.31;4985171;28;20524;-81
2023/11/12 10:47:54;;;;;;;16.00;8.10;;;;;;;5.66;100.00;100382.41;5011245;28;20038;-78
2023/11/12 10:50:22;;;;;;;22.00;7.75;;;;;;;5.64;100.00;100387.69;4984106;28;20038;-78
2023/11/12 10:52:48;;;;;;;15.98;8.70;;;;;;;5.63;100.00;100382.69;4991595;28;20120;-80
2023/11/12 10:55:15;;;;;;;14.27;8.25;;;;;;;5.63;100.00;100385.25;4983535;28;20035;-79
2023/11/12 10:57:46;;;;;;;17.65;8.85;;;;;;;5.70;100.00;100376.06;4987994;28;20451;-78
2023/11/12 11:00:15;;;;;;;21.25;8.75;;;;;;;5.70;100.00;100382.97;4988359;28;20092;-79
2023/11/12 11:02:44;;;;;;;17.55;8.40;;;;;;;5.77;100.00;100384.06;5005850;28;20044;-79
2023/11/12 11:05:12;;;;;;;13.90;7.78;;;;;;;5.84;100.00;100388.53;4993455;28;20116;-78
2023/11/12 11:07:38;;;;;;;15.13;7.80;;;;;;;5.87;100.00;100395.16;4994222;28;20087;-79